createdAt,value
2023-05-09T00:00:06.632Z,0.30
2023-05-09T00:02:35.098Z,0.20
2023-05-09T00:05:04.060Z,0.30
2023-05-09T00:07:32.689Z,0.20
2023-05-09T00:10:02.374Z,0.27
2023-05-09T00:12:30.474Z,0.30
2023-05-09T00:14:58.460Z,0.20
2023-05-09T00:17:26.846Z,0.27
2023-05-09T00:19:55.471Z,0.30
2023-05-09T00:22:23.870Z,0.20
2023-05-09T00:24:52.194Z,0.20
2023-05-09T00:27:34.107Z,0.30
2023-05-09T00:30:02.706Z,0.30
2023-05-09T00:32:30.832Z,0.30
2023-05-09T00:34:59.554Z,0.30
2023-05-09T00:37:29.837Z,0.30
2023-05-09T00:39:57.927Z,0.20
2023-05-09T00:42:27.332Z,0.30
2023-05-09T00:44:55.249Z,0.30
2023-05-09T00:47:25.054Z,0.20
2023-05-09T00:49:55.098Z,0.23
2023-05-09T00:52:25.838Z,0.20
2023-05-09T00:54:54.951Z,0.30
2023-05-09T00:57:23.322Z,0.30
2023-05-09T00:59:52.692Z,0.30
2023-05-09T01:02:21.072Z,0.30
2023-05-09T01:04:50.077Z,0.30
2023-05-09T01:07:24.208Z,0.20
2023-05-09T01:09:58.098Z,0.20
2023-05-09T01:12:36.066Z,0.20
2023-05-09T01:15:13.472Z,0.30
2023-05-09T01:17:53.063Z,0.30
2023-05-09T01:20:29.153Z,0.20
2023-05-09T01:23:13.680Z,0.20
2023-05-09T01:26:03.494Z,0.20
2023-05-09T01:29:08.343Z,0.23
2023-05-09T01:31:41.919Z,0.20
2023-05-09T01:34:12.535Z,0.20
2023-05-09T01:36:43.590Z,0.20
2023-05-09T01:39:14.623Z,0.30
2023-05-09T01:41:42.514Z,0.20
2023-05-09T01:44:13.453Z,0.30
2023-05-09T01:46:45.176Z,0.30
2023-05-09T01:49:14.808Z,0.30
2023-05-09T01:51:43.789Z,0.30
2023-05-09T01:54:13.721Z,0.20
2023-05-09T01:56:43.389Z,0.30
2023-05-09T01:59:16.272Z,0.30
2023-05-09T02:01:46.909Z,0.30
2023-05-09T02:04:17.253Z,0.30
2023-05-09T02:06:49.515Z,0.30
2023-05-09T02:09:18.947Z,0.20
2023-05-09T02:11:47.627Z,0.30
2023-05-09T02:14:16.061Z,0.20
2023-05-09T02:16:45.616Z,0.30
2023-05-09T02:19:13.618Z,0.30
2023-05-09T02:21:42.469Z,0.30
2023-05-09T02:24:12.492Z,0.30
2023-05-09T02:26:41.539Z,0.20
2023-05-09T02:29:11.737Z,0.30
2023-05-09T02:31:42.828Z,0.20
2023-05-09T02:34:16.410Z,0.20
2023-05-09T02:36:44.540Z,0.20
2023-05-09T02:39:13.276Z,0.20
2023-05-09T02:41:42.568Z,0.20
2023-05-09T02:44:10.983Z,0.20
2023-05-09T02:46:43.878Z,0.20
2023-05-09T02:49:23.046Z,0.30
2023-05-09T02:52:02.110Z,0.27
2023-05-09T02:54:30.512Z,0.30
2023-05-09T02:56:59.307Z,0.30
2023-05-09T02:59:27.921Z,0.30
2023-05-09T03:01:59.107Z,0.30
2023-05-09T03:04:28.706Z,0.30
2023-05-09T03:06:59.849Z,0.30
2023-05-09T03:09:31.102Z,0.30
2023-05-09T03:11:59.513Z,0.20
2023-05-09T03:14:29.141Z,0.30
2023-05-09T03:16:57.209Z,0.20
2023-05-09T03:19:26.297Z,0.20
2023-05-09T03:21:56.391Z,0.23
2023-05-09T03:24:24.730Z,0.20
2023-05-09T03:26:53.247Z,0.20
2023-05-09T03:29:21.337Z,0.20
2023-05-09T03:31:49.797Z,0.20
2023-05-09T03:34:18.099Z,0.30
2023-05-09T03:36:46.678Z,0.20
2023-05-09T03:39:22.150Z,0.20
2023-05-09T03:41:50.313Z,0.30
2023-05-09T03:44:18.255Z,0.30
2023-05-09T03:46:53.916Z,0.20
2023-05-09T03:49:24.878Z,0.30
2023-05-09T03:51:53.022Z,0.20
2023-05-09T03:54:24.508Z,0.20
2023-05-09T03:56:52.646Z,0.20
2023-05-09T03:59:20.863Z,0.27
2023-05-09T04:01:55.186Z,0.20
2023-05-09T04:04:23.260Z,0.20
2023-05-09T04:06:51.659Z,0.20
2023-05-09T04:09:19.928Z,0.30
2023-05-09T04:11:50.089Z,0.30
2023-05-09T04:14:18.301Z,0.20
2023-05-09T04:16:49.401Z,0.20
2023-05-09T04:19:20.764Z,0.20
2023-05-09T04:21:49.074Z,0.20
2023-05-09T04:24:17.710Z,0.30
2023-05-09T04:26:50.160Z,0.30
2023-05-09T04:29:18.434Z,0.20
2023-05-09T04:31:48.710Z,0.30
2023-05-09T04:34:16.795Z,0.20
2023-05-09T04:36:45.047Z,0.20
2023-05-09T04:39:15.230Z,0.20
2023-05-09T04:41:44.749Z,0.20
2023-05-09T04:44:14.181Z,0.20
2023-05-09T04:46:42.144Z,0.30
2023-05-09T04:49:10.294Z,0.20
2023-05-09T04:51:38.184Z,0.20
2023-05-09T04:54:06.823Z,0.20
2023-05-09T04:56:34.985Z,0.20
2023-05-09T04:59:02.993Z,0.20
2023-05-09T05:01:32.607Z,0.30
2023-05-09T05:04:02.313Z,0.30
2023-05-09T05:06:31.908Z,0.20
2023-05-09T05:08:59.954Z,0.30
2023-05-09T05:11:27.875Z,0.30
2023-05-09T05:13:56.303Z,0.20
2023-05-09T05:16:24.451Z,0.20
2023-05-09T05:18:55.950Z,0.20
2023-05-09T05:21:24.136Z,0.20
2023-05-09T05:23:52.166Z,0.30
2023-05-09T05:26:20.300Z,0.20
2023-05-09T05:28:48.397Z,0.20
2023-05-09T05:31:16.485Z,0.20
2023-05-09T05:33:45.761Z,0.20
2023-05-09T05:36:15.097Z,0.20
2023-05-09T05:38:43.021Z,0.30
2023-05-09T05:41:12.277Z,0.30
2023-05-09T05:43:40.637Z,0.20
2023-05-09T05:46:08.608Z,0.30
2023-05-09T05:48:36.669Z,0.20
2023-05-09T05:51:04.811Z,0.20
2023-05-09T05:53:34.512Z,0.20
2023-05-09T05:56:10.640Z,0.30
2023-05-09T05:58:40.967Z,0.27
2023-05-09T06:01:12.402Z,0.30
2023-05-09T06:03:40.490Z,0.20
2023-05-09T06:06:09.762Z,0.20
2023-05-09T06:08:39.064Z,0.20
2023-05-09T06:11:07.663Z,0.30
2023-05-09T06:13:35.584Z,0.20
2023-05-09T06:16:18.703Z,0.30
2023-05-09T06:18:48.178Z,0.20
2023-05-09T06:21:18.935Z,0.30
2023-05-09T06:24:05.941Z,0.20
2023-05-09T06:26:36.669Z,0.20
2023-05-09T06:29:06.084Z,0.20
2023-05-09T06:31:38.482Z,0.30
2023-05-09T06:34:06.757Z,0.30
2023-05-09T06:36:34.770Z,0.30
2023-05-09T06:39:04.346Z,0.20
2023-05-09T06:41:32.301Z,0.30
2023-05-09T06:44:02.510Z,0.30
2023-05-09T06:46:30.555Z,0.50
2023-05-09T06:48:58.647Z,0.50
2023-05-09T06:51:27.152Z,0.50
2023-05-09T06:53:55.053Z,0.60
2023-05-09T06:56:25.506Z,0.50
2023-05-09T06:58:54.159Z,0.70
2023-05-09T07:01:24.603Z,0.60
2023-05-09T07:03:52.652Z,0.60
2023-05-09T07:06:20.734Z,0.60
2023-05-09T07:08:48.855Z,0.70
2023-05-09T07:11:16.810Z,0.60
2023-05-09T07:13:49.387Z,0.60
2023-05-09T07:16:18.501Z,0.68
2023-05-09T07:18:46.540Z,0.60
2023-05-09T07:21:14.499Z,0.70
2023-05-09T07:23:42.711Z,0.60
2023-05-09T07:26:10.573Z,0.60
2023-05-09T07:28:39.057Z,0.60
2023-05-09T07:31:09.772Z,0.70
2023-05-09T07:33:37.737Z,0.63
2023-05-09T07:36:05.924Z,0.68
2023-05-09T07:38:33.867Z,0.60
2023-05-09T07:41:01.881Z,0.70
2023-05-09T07:43:30.039Z,0.60
2023-05-09T07:45:58.270Z,0.60
2023-05-09T07:48:27.706Z,0.68
2023-05-09T07:50:55.584Z,0.70
2023-05-09T07:53:23.505Z,0.70
2023-05-09T07:55:51.367Z,0.70
2023-05-09T07:58:19.461Z,0.70
2023-05-09T08:00:47.689Z,0.70
2023-05-09T08:03:15.795Z,0.80
2023-05-09T08:05:45.283Z,0.70
2023-05-09T08:08:13.265Z,0.70
2023-05-09T08:10:41.259Z,0.70
2023-05-09T08:13:09.953Z,0.70
2023-05-09T08:15:38.038Z,0.70
2023-05-09T08:18:06.463Z,0.73
2023-05-09T08:20:34.685Z,0.70
2023-05-09T08:23:04.209Z,0.70
2023-05-09T08:25:32.563Z,0.70
2023-05-09T08:28:00.816Z,0.70
2023-05-09T08:30:29.621Z,0.70
2023-05-09T08:32:57.521Z,0.70
2023-05-09T08:35:25.414Z,0.70
2023-05-09T08:37:53.475Z,0.70
2023-05-09T08:40:22.840Z,0.70
2023-05-09T08:42:51.826Z,0.70
2023-05-09T08:45:27.463Z,0.70
2023-05-09T08:47:55.891Z,0.77
2023-05-09T08:50:24.485Z,0.70
2023-05-09T08:52:53.024Z,0.70
2023-05-09T08:55:23.033Z,0.70
2023-05-09T08:57:51.172Z,0.70
2023-05-09T09:00:21.148Z,0.80
2023-05-09T09:02:50.293Z,0.70
2023-05-09T09:05:39.395Z,0.80
2023-05-09T09:08:08.791Z,0.70
2023-05-09T09:10:44.743Z,0.70
2023-05-09T09:13:14.340Z,0.80
2023-05-09T09:15:45.088Z,0.70
2023-05-09T09:18:17.435Z,0.77
2023-05-09T09:20:51.309Z,0.80
2023-05-09T09:23:21.134Z,0.80
2023-05-09T09:25:50.423Z,0.70
2023-05-09T09:28:18.919Z,0.70
2023-05-09T09:30:49.014Z,0.70
2023-05-09T09:33:23.816Z,0.70
2023-05-09T09:35:54.736Z,0.70
2023-05-09T09:38:24.516Z,0.60
2023-05-09T09:40:58.051Z,0.52
2023-05-09T09:43:30.143Z,0.43
2023-05-09T09:45:58.636Z,0.50
2023-05-09T09:48:26.914Z,0.50
2023-05-09T09:50:57.013Z,0.40
2023-05-09T09:53:30.466Z,0.40
2023-05-09T09:56:00.277Z,0.30
2023-05-09T09:58:28.222Z,0.38
2023-05-09T10:01:09.378Z,0.40
2023-05-09T10:03:39.308Z,0.40
2023-05-09T10:06:11.524Z,0.40
2023-05-09T10:08:39.559Z,0.40
2023-05-09T10:11:10.190Z,0.30
2023-05-09T10:13:39.604Z,0.40
2023-05-09T10:16:10.114Z,0.40
2023-05-09T10:18:40.928Z,0.30
2023-05-09T10:21:12.989Z,0.30
2023-05-09T10:23:44.538Z,0.32
2023-05-09T10:26:19.453Z,0.40
2023-05-09T10:28:49.985Z,0.38
2023-05-09T10:31:23.828Z,0.30
2023-05-09T10:33:52.691Z,0.30
2023-05-09T10:36:23.300Z,0.30
2023-05-09T10:38:52.516Z,0.30
2023-05-09T10:41:23.886Z,0.30
2023-05-09T10:43:52.461Z,0.30
2023-05-09T10:46:21.170Z,0.30
2023-05-09T10:48:50.088Z,0.30
2023-05-09T10:51:18.733Z,0.32
2023-05-09T10:53:49.365Z,0.30
2023-05-09T10:56:27.623Z,0.30
2023-05-09T10:58:55.831Z,0.30
2023-05-09T11:01:33.013Z,0.30
2023-05-09T11:04:01.646Z,0.30
2023-05-09T11:06:51.532Z,0.30
2023-05-09T11:09:32.607Z,0.30
2023-05-09T11:12:10.210Z,0.40
2023-05-09T11:14:44.448Z,0.32
2023-05-09T11:17:13.858Z,0.35
2023-05-09T11:20:05.508Z,0.40
2023-05-09T11:22:41.505Z,0.30
2023-05-09T11:25:11.037Z,0.30
2023-05-09T11:27:45.787Z,0.38
2023-05-09T11:30:15.589Z,0.30
2023-05-09T11:32:46.842Z,0.30
2023-05-09T11:35:17.790Z,0.30
2023-05-09T11:37:48.253Z,0.30
2023-05-09T11:40:18.592Z,0.30
2023-05-09T11:42:50.721Z,0.30
2023-05-09T11:45:19.339Z,0.40
2023-05-09T11:47:48.143Z,0.30
2023-05-09T11:50:18.460Z,0.30
2023-05-09T11:52:47.355Z,0.30
2023-05-09T11:55:16.984Z,0.40
2023-05-09T11:57:49.188Z,0.30
2023-05-09T12:00:18.958Z,0.30
2023-05-09T12:02:49.259Z,0.30
2023-05-09T12:05:19.177Z,0.30
2023-05-09T12:07:47.817Z,0.30
2023-05-09T12:10:18.320Z,0.30
2023-05-09T12:12:49.859Z,0.40
2023-05-09T12:15:19.216Z,0.30
2023-05-09T12:17:49.753Z,0.40
2023-05-09T12:20:19.937Z,0.35
2023-05-09T12:22:54.158Z,0.30
2023-05-09T12:25:23.934Z,0.35
2023-05-09T12:27:54.663Z,0.30
2023-05-09T12:30:23.161Z,0.30
2023-05-09T12:32:51.504Z,0.30
2023-05-09T12:35:23.392Z,0.38
2023-05-09T12:37:57.949Z,0.30
2023-05-09T12:40:26.364Z,0.30
2023-05-09T12:43:02.704Z,0.30
2023-05-09T12:45:33.681Z,0.30
2023-05-09T12:48:02.536Z,0.40
2023-05-09T12:50:36.018Z,0.40
2023-05-09T12:53:05.284Z,0.30
2023-05-09T12:55:40.707Z,0.30
2023-05-09T12:58:09.985Z,0.30
2023-05-09T13:00:44.786Z,0.30
2023-05-09T13:03:26.008Z,0.30
2023-05-09T13:06:01.551Z,0.40
2023-05-09T13:08:30.676Z,0.40
2023-05-09T13:11:12.185Z,0.30
2023-05-09T13:13:45.493Z,0.30
2023-05-09T13:16:15.006Z,0.30
2023-05-09T13:18:45.444Z,0.30
2023-05-09T13:21:13.356Z,0.30
2023-05-09T13:23:42.743Z,0.30
2023-05-09T13:26:11.544Z,0.30
2023-05-09T13:28:39.528Z,0.40
2023-05-09T13:31:08.930Z,0.30
2023-05-09T13:33:37.033Z,0.35
2023-05-09T13:36:06.296Z,0.38
2023-05-09T13:38:38.708Z,0.30
2023-05-09T13:41:06.760Z,0.30
2023-05-09T13:43:35.307Z,0.30
2023-05-09T13:46:04.036Z,0.40
2023-05-09T13:48:33.621Z,0.30
2023-05-09T13:51:07.296Z,0.30
2023-05-09T13:53:43.614Z,0.30
2023-05-09T13:56:15.572Z,0.30
2023-05-09T13:58:44.146Z,0.30
2023-05-09T14:01:12.232Z,0.30
2023-05-09T14:03:42.245Z,0.30
2023-05-09T14:06:12.451Z,0.32
2023-05-09T14:08:41.690Z,0.30
2023-05-09T14:11:12.857Z,0.30
2023-05-09T14:13:41.125Z,0.30
2023-05-09T14:16:09.855Z,0.30
2023-05-09T14:18:37.862Z,0.30
2023-05-09T14:21:08.732Z,0.30
2023-05-09T14:23:36.715Z,0.40
2023-05-09T14:26:04.814Z,0.30
2023-05-09T14:28:32.965Z,0.30
2023-05-09T14:31:01.594Z,0.30
2023-05-09T14:33:29.816Z,0.30
2023-05-09T14:35:57.979Z,0.40
2023-05-09T14:38:27.482Z,0.30
2023-05-09T14:40:56.003Z,0.30
2023-05-09T14:43:24.466Z,0.40
2023-05-09T14:45:52.555Z,0.30
2023-05-09T14:48:20.554Z,0.30
2023-05-09T14:50:49.911Z,0.30
2023-05-09T14:53:17.837Z,0.32
2023-05-09T14:55:47.341Z,0.30
2023-05-09T14:58:16.185Z,0.30
2023-05-09T15:00:44.234Z,0.30
2023-05-09T15:03:12.411Z,0.32
2023-05-09T15:05:43.087Z,0.30
2023-05-09T15:08:12.635Z,0.30
2023-05-09T15:10:40.806Z,0.35
2023-05-09T15:13:11.314Z,0.30
2023-05-09T15:15:40.592Z,0.30
2023-05-09T15:18:11.599Z,0.30
2023-05-09T15:20:39.723Z,0.30
2023-05-09T15:23:08.695Z,0.30
2023-05-09T15:25:36.721Z,0.30
2023-05-09T15:28:04.624Z,0.30
2023-05-09T15:30:35.307Z,0.30
2023-05-09T15:33:04.795Z,0.30
2023-05-09T15:35:32.827Z,0.40
2023-05-09T15:38:00.851Z,0.30
2023-05-09T15:40:29.194Z,0.30
2023-05-09T15:43:00.106Z,0.40
2023-05-09T15:45:28.851Z,0.30
2023-05-09T15:47:58.582Z,0.30
2023-05-09T15:50:26.740Z,0.30
2023-05-09T15:52:54.762Z,0.30
2023-05-09T15:55:23.312Z,0.30
2023-05-09T15:57:52.561Z,0.30
2023-05-09T16:00:20.882Z,0.30
2023-05-09T16:02:48.957Z,0.30
2023-05-09T16:05:19.331Z,0.30
2023-05-09T16:07:50.221Z,0.30
2023-05-09T16:10:18.657Z,0.30
2023-05-09T16:12:46.619Z,0.40
2023-05-09T16:15:14.734Z,0.30
2023-05-09T16:17:43.558Z,0.30
2023-05-09T16:20:14.982Z,0.30
2023-05-09T16:22:44.616Z,0.30
2023-05-09T16:25:13.979Z,0.30
2023-05-09T16:27:42.269Z,0.30
2023-05-09T16:30:12.458Z,0.30
2023-05-09T16:32:40.611Z,0.30
2023-05-09T16:35:09.559Z,0.30
2023-05-09T16:37:37.949Z,0.30
2023-05-09T16:40:08.594Z,0.30
2023-05-09T16:42:36.846Z,0.30
2023-05-09T16:45:05.684Z,0.25
2023-05-09T16:47:33.834Z,0.30
2023-05-09T16:50:01.795Z,0.30
2023-05-09T16:52:30.569Z,0.30
2023-05-09T16:54:59.570Z,0.40
2023-05-09T16:57:28.902Z,0.30
2023-05-09T16:59:56.995Z,0.30
2023-05-09T17:02:25.188Z,0.30
2023-05-09T17:04:53.291Z,0.30
2023-05-09T17:07:21.585Z,0.30
2023-05-09T17:09:49.849Z,0.32
2023-05-09T17:12:18.580Z,0.30
2023-05-09T17:14:49.231Z,0.30
2023-05-09T17:17:18.732Z,0.30
2023-05-09T17:19:47.476Z,0.30
2023-05-09T17:22:15.754Z,0.30
2023-05-09T17:24:44.052Z,0.30
2023-05-09T17:27:11.980Z,0.30
2023-05-09T17:29:40.201Z,0.30
2023-05-09T17:32:09.552Z,0.30
2023-05-09T17:34:39.196Z,0.30
2023-05-09T17:37:09.172Z,0.30
2023-05-09T17:39:37.748Z,0.30
2023-05-09T17:42:07.148Z,0.30
2023-05-09T17:44:35.616Z,0.30
2023-05-09T17:47:04.390Z,0.30
2023-05-09T17:49:34.203Z,0.30
2023-05-09T17:52:02.190Z,0.30
2023-05-09T17:54:30.207Z,0.30
2023-05-09T17:57:03.639Z,0.30
2023-05-09T17:59:32.338Z,0.30
2023-05-09T18:02:00.464Z,0.30
2023-05-09T18:04:30.814Z,0.30
2023-05-09T18:07:00.230Z,0.30
2023-05-09T18:09:30.339Z,0.30
2023-05-09T18:11:59.479Z,0.30
2023-05-09T18:14:29.705Z,0.30
2023-05-09T18:16:57.913Z,0.30
2023-05-09T18:19:27.485Z,0.30
2023-05-09T18:21:55.563Z,0.30
2023-05-09T18:24:25.352Z,0.30
2023-05-09T18:26:57.133Z,0.30
2023-05-09T18:29:25.503Z,0.30
2023-05-09T18:31:57.193Z,0.30
2023-05-09T18:34:25.625Z,0.30
2023-05-09T18:36:53.755Z,0.30
2023-05-09T18:39:21.618Z,0.30
2023-05-09T18:41:51.228Z,0.30
2023-05-09T18:44:19.163Z,0.30
2023-05-09T18:46:47.179Z,0.30
2023-05-09T18:49:18.317Z,0.30
2023-05-09T18:51:47.016Z,0.30
2023-05-09T18:54:15.288Z,0.30
2023-05-09T18:56:44.217Z,0.30
2023-05-09T18:59:16.378Z,0.30
2023-05-09T19:01:45.433Z,0.30
2023-05-09T19:04:14.135Z,0.30
2023-05-09T19:06:42.556Z,0.20
2023-05-09T19:09:11.680Z,0.30
2023-05-09T19:11:39.607Z,0.30
2023-05-09T19:14:07.545Z,0.30
2023-05-09T19:16:38.005Z,0.30
2023-05-09T19:19:06.028Z,0.20
2023-05-09T19:21:35.684Z,0.30
2023-05-09T19:24:04.691Z,0.20
2023-05-09T19:26:32.636Z,0.30
2023-05-09T19:29:04.210Z,0.20
2023-05-09T19:31:32.356Z,0.20
2023-05-09T19:34:02.089Z,0.30
2023-05-09T19:36:30.201Z,0.30
2023-05-09T19:38:58.074Z,0.30
2023-05-09T19:41:26.022Z,0.30
2023-05-09T19:43:54.921Z,0.30
2023-05-09T19:46:23.179Z,0.30
2023-05-09T19:48:51.262Z,0.30
2023-05-09T19:51:29.060Z,0.30
2023-05-09T19:53:57.141Z,0.30
2023-05-09T19:56:25.288Z,0.30
2023-05-09T19:58:53.161Z,0.20
2023-05-09T20:01:21.081Z,0.30
2023-05-09T20:03:50.685Z,0.30
2023-05-09T20:06:20.775Z,0.30
2023-05-09T20:08:51.376Z,0.30
2023-05-09T20:11:19.529Z,0.30
2023-05-09T20:13:47.417Z,0.30
2023-05-09T20:16:15.541Z,0.30
2023-05-09T20:18:44.186Z,0.30
2023-05-09T20:21:12.693Z,0.30
2023-05-09T20:23:42.135Z,0.30
2023-05-09T20:26:10.218Z,0.33
2023-05-09T20:28:38.205Z,0.30
2023-05-09T20:31:06.321Z,0.30
2023-05-09T20:33:35.111Z,0.40
2023-05-09T20:36:03.262Z,0.30
2023-05-09T20:38:31.274Z,0.20
2023-05-09T20:41:00.511Z,0.30
2023-05-09T20:43:28.876Z,0.30
2023-05-09T20:45:57.392Z,0.30
2023-05-09T20:48:25.987Z,0.30
2023-05-09T20:50:54.271Z,0.27
2023-05-09T20:53:26.421Z,0.20
2023-05-09T20:55:55.173Z,0.37
2023-05-09T20:58:24.696Z,0.20
2023-05-09T21:00:52.823Z,0.30
2023-05-09T21:03:21.229Z,0.30
2023-05-09T21:05:51.155Z,0.30
2023-05-09T21:08:19.408Z,0.30
2023-05-09T21:10:48.236Z,0.30
2023-05-09T21:13:16.432Z,0.30
2023-05-09T21:15:46.704Z,0.30
2023-05-09T21:18:16.853Z,0.30
2023-05-09T21:20:45.157Z,0.20
2023-05-09T21:23:15.107Z,0.30
2023-05-09T21:25:43.889Z,0.30
2023-05-09T21:28:11.918Z,0.20
2023-05-09T21:30:39.962Z,0.20
2023-05-09T21:33:09.423Z,0.20
2023-05-09T21:35:37.542Z,0.30
2023-05-09T21:38:05.668Z,0.20
2023-05-09T21:40:33.857Z,0.30
2023-05-09T21:43:01.884Z,0.20
2023-05-09T21:45:30.237Z,0.30
2023-05-09T21:47:58.263Z,0.30
2023-05-09T21:50:27.575Z,0.20
2023-05-09T21:52:57.668Z,0.30
2023-05-09T21:55:25.834Z,0.20
2023-05-09T21:57:54.235Z,0.30
2023-05-09T22:00:22.848Z,0.20
2023-05-09T22:02:50.884Z,0.30
2023-05-09T22:05:19.115Z,0.20
2023-05-09T22:07:48.544Z,0.30
2023-05-09T22:10:17.011Z,0.20
2023-05-09T22:12:45.259Z,0.30
2023-05-09T22:15:13.346Z,0.20
2023-05-09T22:17:41.575Z,0.23
2023-05-09T22:20:10.606Z,0.20
2023-05-09T22:22:38.918Z,0.30
2023-05-09T22:25:08.743Z,0.20
2023-05-09T22:27:37.077Z,0.20
2023-05-09T22:30:06.189Z,0.30
2023-05-09T22:32:34.524Z,0.23
2023-05-09T22:35:03.013Z,0.20
2023-05-09T22:37:31.605Z,0.30
2023-05-09T22:40:01.415Z,0.30
2023-05-09T22:42:32.105Z,0.30
2023-05-09T22:45:00.286Z,0.30
2023-05-09T22:47:28.294Z,0.20
2023-05-09T22:49:56.440Z,0.30
2023-05-09T22:52:24.338Z,0.20
2023-05-09T22:54:52.265Z,0.30
2023-05-09T22:57:20.737Z,0.30
2023-05-09T22:59:51.319Z,0.30
2023-05-09T23:02:19.453Z,0.30
2023-05-09T23:04:47.532Z,0.30
2023-05-09T23:07:15.934Z,0.30
2023-05-09T23:09:44.296Z,0.27
2023-05-09T23:12:12.556Z,0.20
2023-05-09T23:14:40.531Z,0.30
2023-05-09T23:17:10.211Z,0.20
2023-05-09T23:19:38.359Z,0.30
2023-05-09T23:22:06.281Z,0.37
2023-05-09T23:24:34.246Z,0.30
2023-05-09T23:27:03.152Z,0.20
2023-05-09T23:29:31.110Z,0.30
2023-05-09T23:31:59.024Z,0.20
2023-05-09T23:34:28.915Z,0.30
2023-05-09T23:36:56.826Z,0.30
2023-05-09T23:39:24.714Z,0.20
2023-05-09T23:41:52.827Z,0.30
2023-05-09T23:44:20.894Z,0.20
2023-05-09T23:46:48.831Z,0.30
2023-05-09T23:49:17.122Z,0.20
2023-05-09T23:51:46.648Z,0.20
2023-05-09T23:54:16.649Z,0.30
2023-05-09T23:56:44.759Z,0.30
2023-05-09T23:59:12.710Z,0.20
